Time;durP1;ratioP1;P1;durP2;ratioP2;P2;SDS_P1;SDS_P2;PMS_P1;PMS_P2;Temp;Humidity;BMP_temperature;BMP_pressure;BME280_temperature;BME280_humidity;BME280_pressure;Samples;Min_cycle;Max_cycle;Signal;HPM_P1;HPM_P2
2022/05/07 00:01:45;;;;;;;22.87;15.77;;;16.20;73.60;;;;;;5075281;28;20184;-87
2022/05/07 00:04:10;;;;;;;17.23;14.50;;;16.10;73.50;;;;;;5110592;28;20183;-88
2022/05/07 00:06:44;;;;;;;18.50;13.63;;;16.10;73.80;;;;;;5104329;28;20788;-89
2022/05/07 00:09:10;;;;;;;19.42;14.00;;;16.00;73.40;;;;;;5108147;22;20272;-86
2022/05/07 00:11:36;;;;;;;19.37;15.20;;;16.00;73.70;;;;;;5076508;28;20267;-86
2022/05/07 00:14:01;;;;;;;18.93;14.00;;;16.00;74.20;;;;;;5093963;28;20168;-87
2022/05/07 00:19:11;;;;;;;15.88;12.40;;;15.90;73.90;;;;;;5096849;28;20668;-85
2022/05/07 00:21:38;;;;;;;14.27;12.10;;;15.90;74.10;;;;;;5079703;28;20196;-86
2022/05/07 00:24:04;;;;;;;16.33;13.23;;;15.90;74.10;;;;;;5096848;28;20259;-86
2022/05/07 00:26:30;;;;;;;17.98;13.68;;;15.90;74.10;;;;;;5115780;28;20179;-86
2022/05/07 00:28:56;;;;;;;15.33;12.13;;;15.90;74.40;;;;;;5097349;28;20310;-85
2022/05/07 00:31:21;;;;;;;18.03;12.83;;;15.90;74.00;;;;;;5097538;28;20182;-87
2022/05/07 00:33:47;;;;;;;16.70;12.20;;;15.90;73.80;;;;;;5077727;28;20270;-86
2022/05/07 00:36:13;;;;;;;13.80;12.40;;;15.90;73.50;;;;;;5076618;28;20241;-87
2022/05/07 00:38:38;;;;;;;14.13;11.97;;;16.00;73.80;;;;;;5076731;28;20195;-87
2022/05/07 00:41:04;;;;;;;16.80;12.40;;;16.00;73.60;;;;;;5076726;28;20183;-87
2022/05/07 00:43:37;;;;;;;16.60;13.07;;;15.90;73.70;;;;;;5094659;28;20668;-87
2022/05/07 00:46:04;;;;;;;15.20;12.98;;;15.90;73.00;;;;;;5076745;28;20184;-86
2022/05/07 00:48:31;;;;;;;17.17;13.43;;;15.90;72.80;;;;;;5076155;28;20203;-87
2022/05/07 00:53:41;;;;;;;13.57;11.52;;;15.90;73.00;;;;;;5074512;28;20163;-86
2022/05/07 00:56:08;;;;;;;18.77;13.25;;;15.90;72.80;;;;;;5085541;28;20195;-86
2022/05/07 00:58:35;;;;;;;20.70;12.27;;;15.90;72.90;;;;;;5078572;28;20196;-85
2022/05/07 01:01:01;;;;;;;17.42;13.85;;;15.90;72.30;;;;;;5040430;28;20593;-85
2022/05/07 01:03:27;;;;;;;18.65;14.07;;;15.90;71.90;;;;;;5074535;28;20648;-86
2022/05/07 01:05:53;;;;;;;15.30;11.77;;;15.90;71.80;;;;;;5056304;28;20194;-86
2022/05/07 01:08:20;;;;;;;15.43;12.52;;;15.90;72.40;;;;;;5067783;28;20453;-87
2022/05/07 01:10:48;;;;;;;19.30;14.25;;;15.90;72.50;;;;;;5076121;28;20184;-87
2022/05/07 01:13:14;;;;;;;18.67;13.27;;;15.90;73.50;;;;;;5075486;28;20176;-87
2022/05/07 01:15:47;;;;;;;17.75;14.25;;;15.90;72.90;;;;;;5075828;28;20203;-86
2022/05/07 01:18:15;;;;;;;19.80;14.50;;;15.90;72.90;;;;;;5092799;28;20608;-86
2022/05/07 01:20:41;;;;;;;21.20;16.38;;;16.00;72.70;;;;;;5075673;28;20232;-86
2022/05/07 01:23:07;;;;;;;20.65;13.70;;;15.90;73.50;;;;;;5086959;28;20266;-85
2022/05/07 01:25:33;;;;;;;20.60;15.20;;;16.00;71.80;;;;;;5076162;28;20187;-86
2022/05/07 01:27:59;;;;;;;15.97;13.27;;;16.00;71.30;;;;;;5095307;28;20538;-85
2022/05/07 01:30:25;;;;;;;18.43;13.40;;;16.00;71.80;;;;;;5079750;28;20418;-85
2022/05/07 01:32:51;;;;;;;15.85;13.38;;;16.00;72.40;;;;;;5076732;28;20175;-86
2022/05/07 01:35:17;;;;;;;16.83;12.13;;;16.00;70.50;;;;;;5076293;28;20180;-86
2022/05/07 01:37:43;;;;;;;16.55;11.13;;;15.90;68.40;;;;;;5075995;28;20214;-86
2022/05/07 01:40:11;;;;;;;14.60;11.20;;;15.90;66.60;;;;;;5075719;28;20172;-86
2022/05/07 01:42:37;;;;;;;15.63;9.73;;;16.00;65.40;;;;;;5075228;28;20261;-86
2022/05/07 01:45:03;;;;;;;19.98;12.15;;;15.90;64.10;;;;;;5075968;28;20214;-86
2022/05/07 01:50:13;;;;;;;14.00;9.45;;;16.00;64.30;;;;;;5094156;28;20191;-85
2022/05/07 01:52:39;;;;;;;15.13;10.00;;;16.00;64.00;;;;;;5088675;28;20177;-86
2022/05/07 01:55:05;;;;;;;11.53;9.30;;;15.90;63.30;;;;;;5059616;28;20220;-86
2022/05/07 01:57:31;;;;;;;16.03;10.40;;;16.00;62.70;;;;;;5055618;28;20220;-86
2022/05/07 01:59:56;;;;;;;13.80;10.37;;;15.90;62.40;;;;;;5057645;28;20180;-86
2022/05/07 02:02:22;;;;;;;11.50;8.60;;;15.90;62.50;;;;;;5058004;28;20423;-85
2022/05/07 02:04:48;;;;;;;12.67;10.50;;;15.90;62.10;;;;;;5055864;28;20185;-86
2022/05/07 02:07:13;;;;;;;14.53;9.50;;;15.90;61.90;;;;;;5058115;28;20180;-86
2022/05/07 02:09:41;;;;;;;12.30;9.30;;;15.80;61.80;;;;;;5075296;28;20198;-86
2022/05/07 02:12:07;;;;;;;13.43;9.10;;;15.80;62.30;;;;;;5075188;28;20666;-86
2022/05/07 02:14:35;;;;;;;13.65;9.25;;;15.80;62.50;;;;;;5059057;28;20236;-86
2022/05/07 02:17:00;;;;;;;15.40;10.40;;;15.80;62.30;;;;;;5075210;28;20203;-86
2022/05/07 02:19:26;;;;;;;12.20;9.33;;;15.80;62.70;;;;;;5075607;28;20225;-86
2022/05/07 02:21:52;;;;;;;16.83;11.20;;;15.80;62.90;;;;;;5076932;28;20163;-86
2022/05/07 02:24:17;;;;;;;15.83;10.80;;;15.80;63.30;;;;;;5095720;28;20662;-86
2022/05/07 02:26:43;;;;;;;12.50;11.10;;;15.80;63.60;;;;;;5095498;28;20233;-85
2022/05/07 02:29:14;;;;;;;16.33;11.70;;;15.80;63.40;;;;;;5097715;28;20201;-86
2022/05/07 02:31:40;;;;;;;20.95;11.93;;;15.80;63.40;;;;;;5099808;28;20203;-86
2022/05/07 02:34:06;;;;;;;18.60;12.88;;;15.70;63.70;;;;;;5079814;28;20179;-85
2022/05/07 02:36:32;;;;;;;17.55;11.77;;;15.70;63.90;;;;;;5078998;28;20206;-85
2022/05/07 02:38:59;;;;;;;17.00;13.05;;;15.60;64.00;;;;;;5062264;28;20628;-85
2022/05/07 02:44:09;;;;;;;16.35;13.30;;;15.70;64.60;;;;;;5098537;28;20203;-85
2022/05/07 02:46:35;;;;;;;17.77;13.33;;;15.60;64.80;;;;;;5098004;28;20172;-86
2022/05/07 02:49:01;;;;;;;18.92;13.32;;;15.60;64.80;;;;;;5076502;28;20193;-85
2022/05/07 02:51:27;;;;;;;19.77;13.40;;;15.60;65.30;;;;;;5060672;28;20185;-85
2022/05/07 02:53:53;;;;;;;20.40;12.77;;;15.60;64.70;;;;;;5058171;28;20230;-86
2022/05/07 02:56:18;;;;;;;18.40;12.60;;;15.60;64.60;;;;;;5058565;28;20226;-86
2022/05/07 02:58:44;;;;;;;15.67;13.00;;;15.50;64.80;;;;;;5058116;28;20719;-85
2022/05/07 03:01:10;;;;;;;21.33;12.70;;;15.50;65.30;;;;;;5076272;28;20471;-86
2022/05/07 03:03:35;;;;;;;16.70;12.33;;;15.50;65.40;;;;;;5057964;28;20177;-86
2022/05/07 03:06:01;;;;;;;19.73;13.97;;;15.50;66.70;;;;;;5058684;28;20177;-85
2022/05/07 03:08:27;;;;;;;21.67;14.40;;;15.50;65.90;;;;;;5089231;28;20207;-86
2022/05/07 03:10:53;;;;;;;23.37;13.93;;;15.40;65.70;;;;;;5078385;28;20428;-85
2022/05/07 03:13:18;;;;;;;19.50;13.73;;;15.40;65.90;;;;;;5077710;28;20221;-85
2022/05/07 03:15:44;;;;;;;18.50;14.20;;;15.40;65.80;;;;;;5078374;28;20231;-86
2022/05/07 03:18:12;;;;;;;20.85;13.02;;;15.40;65.90;;;;;;5078457;28;20687;-86
2022/05/07 03:20:40;;;;;;;16.25;12.93;;;15.40;66.50;;;;;;5078592;28;20176;-86
2022/05/07 03:23:06;;;;;;;17.15;12.57;;;15.40;66.60;;;;;;5061561;28;20202;-85
2022/05/07 03:25:31;;;;;;;16.50;11.17;;;15.40;66.00;;;;;;5077317;28;20184;-85
2022/05/07 03:27:57;;;;;;;15.23;11.10;;;15.40;65.70;;;;;;5078699;28;20430;-85
2022/05/07 03:30:23;;;;;;;16.80;11.53;;;15.40;65.60;;;;;;5079289;28;20418;-86
2022/05/07 03:32:49;;;;;;;16.27;11.20;;;15.30;65.10;;;;;;5098468;28;20432;-85
2022/05/07 03:35:14;;;;;;;13.53;10.53;;;15.30;65.00;;;;;;5081077;28;20274;-86
2022/05/07 03:37:40;;;;;;;13.73;10.20;;;15.20;64.80;;;;;;5082208;28;20207;-86
2022/05/07 03:40:06;;;;;;;15.10;10.53;;;15.20;64.80;;;;;;5061103;28;20756;-86
2022/05/07 03:42:33;;;;;;;15.43;11.23;;;15.20;65.40;;;;;;5078839;28;20651;-86
2022/05/07 03:45:00;;;;;;;20.30;12.25;;;15.20;65.40;;;;;;5061665;28;20292;-85
2022/05/07 03:47:26;;;;;;;18.92;12.57;;;15.20;65.30;;;;;;5083494;28;20172;-86
2022/05/07 03:49:52;;;;;;;21.07;14.00;;;15.10;65.90;;;;;;5073768;28;20188;-85
2022/05/07 03:55:02;;;;;;;24.50;14.13;;;15.10;66.30;;;;;;5076177;28;20187;-85
2022/05/07 03:57:28;;;;;;;26.63;14.57;;;15.00;66.40;;;;;;5058527;28;20708;-86
2022/05/07 03:59:55;;;;;;;22.47;13.83;;;15.00;67.10;;;;;;5076714;28;20808;-86
2022/05/07 04:02:21;;;;;;;25.23;13.52;;;14.90;67.30;;;;;;5073482;28;20175;-85
2022/05/07 04:04:47;;;;;;;24.37;15.60;;;14.90;67.30;;;;;;5077958;28;20184;-85
2022/05/07 04:07:14;;;;;;;20.40;12.13;;;14.90;67.50;;;;;;5077975;28;20294;-84
2022/05/07 04:09:40;;;;;;;23.23;15.10;;;14.90;67.70;;;;;;5078194;28;20270;-84
2022/05/07 04:12:06;;;;;;;29.00;16.20;;;14.90;68.30;;;;;;5077340;28;20187;-85
2022/05/07 04:14:50;;;;;;;24.83;15.00;;;14.90;68.00;;;;;;5095738;28;20266;-84
2022/05/07 04:17:16;;;;;;;28.88;15.25;;;14.90;68.20;;;;;;5077431;28;20294;-85
2022/05/07 04:19:41;;;;;;;24.07;14.20;;;14.90;68.10;;;;;;5077628;28;20229;-85
2022/05/07 04:22:07;;;;;;;24.03;14.00;;;14.80;67.60;;;;;;5095960;28;20167;-84
2022/05/07 04:24:33;;;;;;;18.00;13.70;;;14.90;67.70;;;;;;5079508;28;20176;-84
2022/05/07 04:27:02;;;;;;;25.65;15.90;;;14.80;67.80;;;;;;5103000;28;20176;-85
2022/05/07 04:29:28;;;;;;;27.23;15.35;;;14.80;67.50;;;;;;5086459;28;20235;-84
2022/05/07 04:31:54;;;;;;;25.43;14.77;;;14.90;67.80;;;;;;5088622;28;20182;-85
2022/05/07 04:34:19;;;;;;;23.43;16.50;;;14.80;67.90;;;;;;5097674;28;20228;-84
2022/05/07 04:36:45;;;;;;;22.63;15.83;;;14.90;68.00;;;;;;5077417;28;20211;-86
2022/05/07 04:39:23;;;;;;;22.23;14.70;;;14.90;68.20;;;;;;5077210;28;20441;-84
2022/05/07 04:41:49;;;;;;;24.58;16.10;;;14.80;68.60;;;;;;5077029;28;20174;-85
2022/05/07 04:44:14;;;;;;;28.13;15.63;;;14.80;68.40;;;;;;5060610;28;20577;-85
2022/05/07 04:46:40;;;;;;;29.13;17.67;;;14.90;69.30;;;;;;5077148;28;20195;-86
2022/05/07 04:49:06;;;;;;;24.83;16.00;;;14.90;68.80;;;;;;5077139;28;20202;-85
2022/05/07 04:51:32;;;;;;;26.98;15.90;;;14.80;68.70;;;;;;5077628;28;20426;-85
2022/05/07 04:53:58;;;;;;;23.80;15.30;;;14.90;69.00;;;;;;5077267;28;20183;-86
2022/05/07 04:56:25;;;;;;;29.87;17.90;;;14.80;69.40;;;;;;5095237;28;20287;-86
2022/05/07 04:58:51;;;;;;;28.38;17.67;;;14.80;69.20;;;;;;5095398;28;20219;-85
2022/05/07 05:01:18;;;;;;;26.83;17.30;;;14.90;69.40;;;;;;5058894;28;20184;-85
2022/05/07 05:03:44;;;;;;;35.75;17.38;;;14.90;69.60;;;;;;5057279;28;20328;-85
2022/05/07 05:06:10;;;;;;;31.43;16.20;;;14.80;69.90;;;;;;5057850;28;20259;-85
2022/05/07 05:08:35;;;;;;;35.40;17.33;;;14.80;70.00;;;;;;5072647;28;20976;-85
2022/05/07 05:11:01;;;;;;;30.67;17.40;;;14.90;70.80;;;;;;5080751;28;20180;-85
2022/05/07 05:13:27;;;;;;;27.73;17.70;;;14.80;70.80;;;;;;5106378;28;20180;-86
2022/05/07 05:15:52;;;;;;;27.33;17.53;;;14.80;70.60;;;;;;5088283;28;20227;-86
2022/05/07 05:18:18;;;;;;;29.00;17.60;;;14.90;71.00;;;;;;5080928;28;20196;-86
2022/05/07 05:20:44;;;;;;;32.83;17.47;;;14.80;71.10;;;;;;5076706;28;20171;-86
2022/05/07 05:23:10;;;;;;;26.90;17.33;;;14.90;70.70;;;;;;5077607;28;20187;-85
2022/05/07 05:25:35;;;;;;;22.57;15.33;;;14.90;70.80;;;;;;5059614;28;20234;-86
2022/05/07 05:28:01;;;;;;;25.60;17.03;;;14.90;70.90;;;;;;5075582;28;20228;-86
2022/05/07 05:30:27;;;;;;;32.20;17.07;;;14.90;71.10;;;;;;5094042;28;20619;-86
2022/05/07 05:32:53;;;;;;;24.07;16.13;;;14.90;70.60;;;;;;5106622;28;20234;-88
2022/05/07 05:35:18;;;;;;;29.87;18.13;;;14.90;70.50;;;;;;5088065;28;20204;-87
2022/05/07 05:37:48;;;;;;;32.13;17.33;;;15.10;70.50;;;;;;5056228;28;20586;-87
2022/05/07 05:40:14;;;;;;;27.80;16.75;;;15.10;70.50;;;;;;5055966;28;20759;-87
2022/05/07 05:42:40;;;;;;;25.93;17.73;;;15.20;70.20;;;;;;5055093;28;20197;-87
2022/05/07 05:45:08;;;;;;;24.20;16.40;;;15.30;70.20;;;;;;5056235;28;20268;-87
2022/05/07 05:47:34;;;;;;;27.02;16.83;;;15.30;70.10;;;;;;5055839;28;20197;-87
2022/05/07 05:50:01;;;;;;;28.30;18.03;;;15.30;69.70;;;;;;5055908;28;20238;-86
2022/05/07 05:52:27;;;;;;;24.40;16.10;;;15.40;69.60;;;;;;5055322;28;20476;-86
2022/05/07 05:54:53;;;;;;;24.27;15.75;;;15.50;69.40;;;;;;5073821;28;20218;-88
2022/05/07 05:57:19;;;;;;;28.60;17.73;;;15.50;69.10;;;;;;5084369;28;20195;-86
2022/05/07 05:59:44;;;;;;;23.40;16.50;;;15.70;69.10;;;;;;5076453;28;20179;-87
2022/05/07 06:02:10;;;;;;;29.73;18.03;;;15.90;69.60;;;;;;5073733;28;20164;-86
2022/05/07 06:04:42;;;;;;;26.67;17.03;;;16.00;68.20;;;;;;5082571;28;20658;-86
2022/05/07 06:07:08;;;;;;;27.52;16.45;;;16.20;67.80;;;;;;5065022;28;20322;-86
2022/05/07 06:09:33;;;;;;;27.17;16.53;;;16.30;67.00;;;;;;5082191;28;20248;-86
2022/05/07 06:11:59;;;;;;;29.20;16.80;;;16.40;66.70;;;;;;5099288;28;20256;-86
2022/05/07 06:14:28;;;;;;;26.48;16.35;;;16.40;66.90;;;;;;5083879;28;20179;-86
2022/05/07 06:16:54;;;;;;;33.88;18.38;;;16.40;66.60;;;;;;5083196;28;20203;-86
2022/05/07 06:19:21;;;;;;;24.40;15.47;;;16.30;67.40;;;;;;5066842;28;20203;-85
2022/05/07 06:21:47;;;;;;;31.40;18.50;;;16.30;67.40;;;;;;5084672;28;20911;-88
2022/05/07 06:29:42;;;;;;;28.35;17.90;;;16.60;67.10;;;;;;5099937;28;20267;-86
2022/05/07 06:32:14;;;;;;;25.33;15.90;;;16.90;66.20;;;;;;5080880;28;20203;-87
2022/05/07 06:34:40;;;;;;;24.52;16.38;;;17.30;64.70;;;;;;5082112;28;20176;-87
2022/05/07 06:37:06;;;;;;;25.10;17.07;;;17.60;64.00;;;;;;5081600;28;20203;-87
2022/05/07 06:39:32;;;;;;;26.27;17.50;;;18.30;62.70;;;;;;5069103;28;20203;-87
2022/05/07 06:41:58;;;;;;;31.77;17.50;;;18.50;61.00;;;;;;5061053;28;20200;-88
2022/05/07 06:44:23;;;;;;;24.57;17.60;;;18.50;60.80;;;;;;5062786;28;20540;-88
2022/05/07 06:46:50;;;;;;;33.30;19.63;;;18.50;60.80;;;;;;5063544;28;20501;-88
2022/05/07 06:49:17;;;;;;;23.50;17.10;;;18.60;60.60;;;;;;5063883;28;20287;-88
2022/05/07 06:51:43;;;;;;;23.90;16.50;;;18.20;61.70;;;;;;5063358;28;20192;-88
2022/05/07 06:54:09;;;;;;;33.38;18.92;;;18.20;61.60;;;;;;5065421;28;20200;-88
2022/05/07 06:56:35;;;;;;;27.13;18.73;;;17.80;62.40;;;;;;5064406;28;20595;-89
2022/05/07 06:59:02;;;;;;;32.90;19.00;;;17.60;63.30;;;;;;5064612;28;20189;-89
2022/05/07 07:01:28;;;;;;;30.25;17.95;;;17.40;64.10;;;;;;5061896;28;20599;-89
2022/05/07 07:03:53;;;;;;;32.57;18.10;;;17.30;64.70;;;;;;5064614;28;20176;-88
2022/05/07 07:06:19;;;;;;;36.10;19.87;;;17.20;65.00;;;;;;5084486;28;20180;-87
2022/05/07 07:08:45;;;;;;;34.00;18.97;;;17.10;65.60;;;;;;5080948;28;20590;-87
2022/05/07 07:11:10;;;;;;;33.00;20.13;;;17.10;66.20;;;;;;5067422;28;20658;-88
2022/05/07 07:13:36;;;;;;;33.20;19.47;;;17.10;65.90;;;;;;5081612;28;20210;-89
2022/05/07 07:16:02;;;;;;;39.43;19.47;;;17.20;65.80;;;;;;5078260;28;20681;-88
2022/05/07 07:18:28;;;;;;;30.00;18.63;;;17.40;66.20;;;;;;5077115;28;20474;-87
2022/05/07 07:20:54;;;;;;;32.43;18.23;;;17.80;65.40;;;;;;5097650;28;20464;-87
2022/05/07 07:23:19;;;;;;;28.23;17.27;;;18.10;64.60;;;;;;5086046;28;20786;-87
2022/05/07 07:25:45;;;;;;;28.63;15.93;;;18.20;63.80;;;;;;5079009;28;20220;-87
2022/05/07 07:28:12;;;;;;;23.20;15.67;;;18.60;62.00;;;;;;5079972;28;20195;-88
2022/05/07 07:30:38;;;;;;;26.13;17.00;;;18.90;60.00;;;;;;5082384;28;20207;-89
2022/05/07 07:33:05;;;;;;;23.65;17.65;;;19.20;58.20;;;;;;5077720;28;20176;-88
2022/05/07 07:35:31;;;;;;;22.95;15.82;;;19.20;57.40;;;;;;5063483;28;20746;-88
2022/05/07 07:37:57;;;;;;;39.88;19.75;;;19.20;58.00;;;;;;5085076;28;20301;-89
2022/05/07 07:40:23;;;;;;;26.47;19.30;;;18.80;60.20;;;;;;5096068;28;20206;-87
2022/05/07 07:42:48;;;;;;;27.73;16.80;;;18.50;61.30;;;;;;5095274;28;20453;-88
2022/05/07 07:48:05;;;;;;;25.38;16.95;;;18.60;61.70;;;;;;5095852;28;20238;-88
2022/05/07 07:50:35;;;;;;;24.70;15.40;;;18.90;59.10;;;;;;5078247;28;20232;-88
2022/05/07 07:53:11;;;;;;;26.73;15.75;;;19.10;58.50;;;;;;5095885;28;20518;-87
2022/05/07 07:55:38;;;;;;;32.50;18.23;;;19.00;59.80;;;;;;5074250;28;20184;-88
2022/05/07 07:58:12;;;;;;;20.27;14.70;;;19.20;59.20;;;;;;5078763;28;20576;-89
2022/05/07 08:00:41;;;;;;;24.63;13.10;;;19.20;60.70;;;;;;5077755;28;20175;-88
2022/05/07 08:03:18;;;;;;;21.75;14.15;;;19.40;60.20;;;;;;5077470;28;20214;-88
2022/05/07 08:05:46;;;;;;;24.38;13.88;;;19.70;58.00;;;;;;5076545;28;20722;-89
2022/05/07 08:13:45;;;;;;;16.97;13.53;;;20.00;59.50;;;;;;5096588;28;20435;-88
2022/05/07 08:19:32;;;;;;;19.50;12.50;;;20.40;58.40;;;;;;5103602;28;20475;-88
2022/05/07 08:22:07;;;;;;;20.20;13.23;;;20.50;58.10;;;;;;5087883;28;20426;-88
2022/05/07 08:24:33;;;;;;;22.40;14.43;;;20.60;58.00;;;;;;5107693;28;20189;-88
2022/05/07 08:26:59;;;;;;;19.33;13.30;;;20.60;57.00;;;;;;5084362;28;20430;-88
2022/05/07 08:29:26;;;;;;;19.20;14.80;;;20.60;58.00;;;;;;5110981;28;20563;-89
2022/05/07 08:31:52;;;;;;;21.07;15.33;;;20.80;54.80;;;;;;5084081;28;20414;-87
2022/05/07 08:34:17;;;;;;;24.57;15.27;;;21.00;53.60;;;;;;5102118;28;20429;-88
2022/05/07 08:36:43;;;;;;;22.20;14.70;;;20.90;53.10;;;;;;5077159;28;20499;-88
2022/05/07 08:39:09;;;;;;;19.13;15.27;;;21.00;52.50;;;;;;5076999;28;20736;-88
2022/05/07 08:41:36;;;;;;;17.30;13.50;;;20.90;52.70;;;;;;5076469;28;20195;-88
2022/05/07 08:44:02;;;;;;;19.00;14.37;;;20.70;53.70;;;;;;5076429;28;20183;-89
2022/05/07 08:46:32;;;;;;;21.83;14.63;;;20.80;53.20;;;;;;5087354;28;20413;-90
2022/05/07 08:48:58;;;;;;;24.17;14.40;;;20.80;54.30;;;;;;5092445;28;20430;-89
2022/05/07 08:51:24;;;;;;;20.17;14.83;;;20.30;56.20;;;;;;5065552;28;20425;-88
2022/05/07 08:53:53;;;;;;;22.43;15.17;;;20.50;54.70;;;;;;5074438;28;20183;-89
2022/05/07 08:56:19;;;;;;;21.50;14.87;;;20.60;54.50;;;;;;5072755;28;20993;-89
2022/05/07 08:58:53;;;;;;;20.27;14.53;;;20.80;53.90;;;;;;5086677;28;20631;-89
2022/05/07 09:01:24;;;;;;;22.50;16.97;;;21.00;53.30;;;;;;5056507;28;20407;-89
2022/05/07 09:03:51;;;;;;;18.47;13.47;;;20.90;54.30;;;;;;5056220;28;20411;-88
2022/05/07 09:06:27;;;;;;;22.83;13.40;;;20.60;55.60;;;;;;5093820;28;20425;-87
2022/05/07 09:08:55;;;;;;;20.03;14.40;;;20.90;53.50;;;;;;5078933;28;21854;-89
2022/05/07 09:11:21;;;;;;;24.23;15.67;;;20.80;55.30;;;;;;5077285;28;21165;-88
2022/05/07 09:13:47;;;;;;;17.17;14.27;;;20.50;55.50;;;;;;5087461;28;20790;-88
2022/05/07 09:16:14;;;;;;;17.70;12.47;;;20.50;55.80;;;;;;5075669;28;20870;-88
2022/05/07 09:18:47;;;;;;;19.10;14.40;;;20.60;56.30;;;;;;5074906;28;20445;-88
2022/05/07 09:21:20;;;;;;;22.10;14.63;;;20.30;56.50;;;;;;5075943;28;20411;-88
2022/05/07 09:24:03;;;;;;;20.87;15.33;;;20.30;57.30;;;;;;5082516;28;20410;-88
2022/05/07 09:26:40;;;;;;;22.53;12.23;;;20.10;57.80;;;;;;5075112;28;20418;-88
2022/05/07 09:29:10;;;;;;;26.10;17.13;;;20.20;58.40;;;;;;5076141;28;20528;-89
2022/05/07 09:31:42;;;;;;;18.47;11.00;;;20.10;58.30;;;;;;5086626;28;20800;-87
2022/05/07 09:37:01;;;;;;;24.40;14.60;;;20.10;59.40;;;;;;5094024;28;20464;-88
2022/05/07 09:39:34;;;;;;;22.23;14.20;;;20.10;59.50;;;;;;5097144;28;20524;-89
2022/05/07 09:42:01;;;;;;;23.10;15.13;;;20.20;58.60;;;;;;5081175;28;20914;-89
2022/05/07 09:44:29;;;;;;;22.53;15.30;;;20.30;58.50;;;;;;5079050;28;20425;-87
2022/05/07 09:46:59;;;;;;;20.80;15.00;;;20.10;58.90;;;;;;5065215;28;20427;-87
2022/05/07 09:49:26;;;;;;;20.87;14.20;;;20.00;58.20;;;;;;5077386;28;20455;-87
2022/05/07 09:51:54;;;;;;;18.33;12.47;;;20.10;59.10;;;;;;5078939;28;20451;-87
2022/05/07 09:59:51;;;;;;;22.50;15.23;;;20.10;59.10;;;;;;5066705;28;20422;-88
2022/05/07 10:02:53;;;;;;;20.43;16.20;;;20.30;58.00;;;;;;5055857;28;20421;-88
2022/05/07 10:05:46;;;;;;;18.23;12.43;;;20.40;58.50;;;;;;5025021;28;20414;-88
2022/05/07 10:08:24;;;;;;;16.77;12.30;;;20.20;58.20;;;;;;5062980;28;20508;-88
2022/05/07 10:10:53;;;;;;;19.03;13.00;;;20.00;58.30;;;;;;5074002;28;20425;-88
2022/05/07 10:13:19;;;;;;;25.80;12.93;;;20.00;57.70;;;;;;5076191;28;20425;-88
2022/05/07 10:15:46;;;;;;;20.77;12.80;;;20.20;56.30;;;;;;5090289;28;20418;-88
2022/05/07 10:18:38;;;;;;;17.20;9.73;;;20.10;57.80;;;;;;5068049;28;20520;-86
2022/05/07 10:21:16;;;;;;;18.90;13.17;;;20.10;59.20;;;;;;5087995;28;20459;-87
2022/05/07 10:23:54;;;;;;;25.90;14.70;;;20.10;59.40;;;;;;5082650;28;20419;-88
2022/05/07 10:26:23;;;;;;;20.17;14.57;;;20.10;58.80;;;;;;5094341;28;20409;-89
2022/05/07 10:28:50;;;;;;;23.70;15.38;;;20.10;59.50;;;;;;5091256;28;20815;-88
2022/05/07 10:31:23;;;;;;;23.10;14.77;;;19.90;60.10;;;;;;5105636;28;20267;-88
2022/05/07 10:33:50;;;;;;;23.23;12.93;;;20.00;60.80;;;;;;5092881;28;20418;-88
2022/05/07 10:36:17;;;;;;;22.10;14.67;;;20.10;61.20;;;;;;5094329;28;20457;-88
2022/05/07 10:38:45;;;;;;;16.80;13.90;;;20.00;60.90;;;;;;5075089;28;20799;-88
2022/05/07 10:41:17;;;;;;;20.33;12.50;;;20.00;61.20;;;;;;5075468;28;20428;-88
2022/05/07 10:43:47;;;;;;;26.83;14.67;;;20.10;61.00;;;;;;5093161;28;20888;-88
2022/05/07 10:46:16;;;;;;;22.67;12.90;;;20.00;60.90;;;;;;5093656;28;20761;-88
2022/05/07 10:48:44;;;;;;;20.50;12.53;;;20.00;60.60;;;;;;5073194;28;21179;-89
2022/05/07 10:51:32;;;;;;;23.20;12.83;;;20.00;60.40;;;;;;5058729;28;20940;-89
2022/05/07 10:54:00;;;;;;;14.17;11.20;;;20.00;59.60;;;;;;5077376;28;20413;-90
2022/05/07 10:56:28;;;;;;;22.13;11.02;;;20.00;59.80;;;;;;5059865;28;20915;-89
2022/05/07 10:58:57;;;;;;;17.23;10.90;;;19.90;60.10;;;;;;5059988;28;20257;-88
2022/05/07 11:01:24;;;;;;;19.05;11.18;;;19.90;60.00;;;;;;5059383;28;20419;-89
2022/05/07 11:04:05;;;;;;;15.02;11.60;;;19.80;59.40;;;;;;5065295;28;20171;-88
2022/05/07 11:06:32;;;;;;;19.03;11.70;;;19.80;58.70;;;;;;5084269;28;20282;-87
2022/05/07 11:08:58;;;;;;;17.70;11.10;;;20.00;57.60;;;;;;5094087;28;20506;-88
2022/05/07 11:11:24;;;;;;;15.60;11.70;;;19.90;58.50;;;;;;5094662;28;20187;-88
2022/05/07 11:13:57;;;;;;;18.23;11.70;;;20.00;57.70;;;;;;5101828;28;21081;-87
2022/05/07 11:16:24;;;;;;;16.33;12.60;;;20.20;57.60;;;;;;5098585;28;20449;-87
2022/05/07 11:18:56;;;;;;;15.10;11.00;;;20.20;57.50;;;;;;5078021;28;20790;-88
2022/05/07 11:21:24;;;;;;;13.87;11.20;;;20.10;58.10;;;;;;5078163;28;20199;-87
2022/05/07 11:23:58;;;;;;;13.88;11.00;;;20.30;58.30;;;;;;5096330;28;20421;-88
2022/05/07 11:26:26;;;;;;;14.88;10.98;;;20.00;58.90;;;;;;5079516;28;20177;-87
2022/05/07 11:28:52;;;;;;;15.18;11.18;;;19.90;59.50;;;;;;5096694;28;20192;-88
2022/05/07 11:31:32;;;;;;;12.33;10.70;;;20.00;59.60;;;;;;5080968;28;20233;-86
2022/05/07 11:34:07;;;;;;;16.98;11.02;;;20.00;58.70;;;;;;5078337;28;20972;-86
2022/05/07 11:36:34;;;;;;;16.95;9.98;;;20.00;58.20;;;;;;5077911;28;20191;-87
2022/05/07 11:39:01;;;;;;;16.00;10.13;;;19.80;58.90;;;;;;5078005;28;20188;-87
2022/05/07 11:41:28;;;;;;;14.70;10.67;;;19.90;58.50;;;;;;5079231;28;20180;-85
2022/05/07 11:46:52;;;;;;;13.35;9.98;;;19.90;59.40;;;;;;5114048;28;20398;-86
2022/05/07 11:49:34;;;;;;;17.45;11.50;;;20.10;59.40;;;;;;5076085;28;20204;-86
2022/05/07 11:52:08;;;;;;;12.60;10.18;;;20.00;58.20;;;;;;5075549;28;20161;-88
2022/05/07 11:54:34;;;;;;;13.37;11.30;;;20.10;58.10;;;;;;5081644;28;20160;-87
2022/05/07 11:57:00;;;;;;;14.23;10.27;;;20.10;57.80;;;;;;5082108;28;20457;-86
2022/05/07 11:59:26;;;;;;;18.00;11.17;;;20.20;57.30;;;;;;5077693;28;20200;-85
2022/05/07 12:01:52;;;;;;;15.60;11.27;;;20.20;57.30;;;;;;5077432;28;20510;-88
2022/05/07 12:04:18;;;;;;;12.30;10.00;;;20.00;57.60;;;;;;5077489;28;20449;-87
2022/05/07 12:06:57;;;;;;;15.80;11.33;;;20.00;58.20;;;;;;5077944;28;20176;-87
2022/05/07 12:09:27;;;;;;;14.47;10.37;;;20.10;57.90;;;;;;5077443;28;20540;-87
2022/05/07 12:11:53;;;;;;;14.90;10.55;;;20.00;58.50;;;;;;5068421;28;20427;-87
2022/05/07 12:14:19;;;;;;;15.97;11.10;;;20.00;57.50;;;;;;5056641;28;20176;-86
2022/05/07 12:19:34;;;;;;;15.80;12.30;;;20.10;57.80;;;;;;5075563;28;20267;-87
2022/05/07 12:30:14;;;;;;;15.23;11.03;;;20.10;56.80;;;;;;5075032;28;20386;-86
2022/05/07 12:32:43;;;;;;;14.97;10.07;;;20.10;57.80;;;;;;5067963;28;20456;-87
2022/05/07 12:35:13;;;;;;;13.00;8.17;;;20.00;57.30;;;;;;5076608;28;20172;-87
2022/05/07 12:37:39;;;;;;;13.63;8.55;;;20.00;57.50;;;;;;5076420;28;20465;-87
2022/05/07 12:40:12;;;;;;;15.70;9.10;;;20.10;57.60;;;;;;5076804;28;20559;-88
2022/05/07 12:42:39;;;;;;;12.93;8.63;;;20.10;57.70;;;;;;5095430;28;20455;-87
2022/05/07 12:45:06;;;;;;;10.33;8.17;;;20.20;57.10;;;;;;5077233;28;20191;-88
2022/05/07 12:47:32;;;;;;;13.30;6.43;;;20.20;56.90;;;;;;5076260;28;20434;-88
2022/05/07 12:49:58;;;;;;;13.07;7.97;;;20.20;57.10;;;;;;5064372;28;20423;-87
2022/05/07 12:52:23;;;;;;;11.57;9.47;;;20.10;57.30;;;;;;5056310;28;20172;-87
2022/05/07 12:54:50;;;;;;;11.73;7.27;;;20.20;57.50;;;;;;5056839;28;20472;-87
2022/05/07 12:57:16;;;;;;;9.47;7.87;;;20.20;57.60;;;;;;5055947;28;20583;-87
2022/05/07 12:59:42;;;;;;;17.93;10.37;;;20.20;57.50;;;;;;5056018;28;20411;-88
2022/05/07 13:02:11;;;;;;;15.15;10.80;;;20.10;57.50;;;;;;5073487;28;20407;-87
2022/05/07 13:04:37;;;;;;;10.02;8.40;;;20.00;57.60;;;;;;5060604;28;20700;-87
2022/05/07 13:07:04;;;;;;;11.93;8.77;;;20.00;57.70;;;;;;5075848;28;20266;-87
2022/05/07 13:09:29;;;;;;;13.38;9.68;;;20.00;57.80;;;;;;5075871;28;20856;-88
2022/05/07 13:11:57;;;;;;;16.47;7.93;;;20.10;57.00;;;;;;5076416;28;20179;-88
2022/05/07 13:14:23;;;;;;;8.00;7.03;;;20.10;57.30;;;;;;5075675;28;20176;-87
2022/05/07 13:16:52;;;;;;;11.43;7.40;;;20.20;57.10;;;;;;5084010;28;20192;-87
2022/05/07 13:19:18;;;;;;;9.83;6.93;;;20.30;57.00;;;;;;5097111;28;20421;-87
2022/05/07 13:21:44;;;;;;;15.20;7.93;;;20.30;57.10;;;;;;5096749;28;20401;-87
2022/05/07 13:24:11;;;;;;;12.80;7.80;;;20.30;56.80;;;;;;5099298;28;20182;-87